Time;durP1;ratioP1;P1;durP2;ratioP2;P2;SDS_P1;SDS_P2;PMS_P1;PMS_P2;Temp;Humidity;BMP_temperature;BMP_pressure;BME280_temperature;BME280_humidity;BME280_pressure;Samples;Min_cycle;Max_cycle;Signal;HPM_P1;HPM_P2
2024/04/09 00:01:02;;;;;;;1.03;0.50;;;;;;;;;;5413519;26;20008;-64
2024/04/09 00:03:29;;;;;;;0.85;0.60;;;;;;;;;;5384099;26;20008;-64
2024/04/09 00:05:54;;;;;;;11.43;1.23;;;;;;;;;;5357197;26;20001;-64
2024/04/09 00:08:21;;;;;;;3.97;0.70;;;;;;;;;;5407247;26;20003;-65
2024/04/09 00:10:47;;;;;;;1.50;0.95;;;;;;;;;;5391332;26;20000;-64
2024/04/09 00:13:12;;;;;;;1.02;0.35;;;;;;;;;;5390312;26;20082;-64
2024/04/09 00:15:40;;;;;;;15.33;0.70;;;;;;;;;;5385948;26;20000;-64
2024/04/09 00:18:17;;;;;;;4.72;1.08;;;;;;;;;;5407053;26;20233;-65
2024/04/09 00:20:44;;;;;;;1.55;0.73;;;;;;;;;;5402588;26;20066;-65
2024/04/09 00:23:18;;;;;;;1.13;0.80;;;;;;;;;;5407011;26;20072;-64
2024/04/09 00:25:44;;;;;;;3.13;0.63;;;;;;;;;;5415371;26;20000;-64
2024/04/09 00:28:11;;;;;;;2.08;0.55;;;;;;;;;;5414385;26;20484;-65
2024/04/09 00:30:36;;;;;;;0.10;0.10;;;;;;;;;;5415967;26;20003;-65
2024/04/09 00:33:01;;;;;;;1.00;0.67;;;;;;;;;;5386358;26;20000;-65
2024/04/09 00:35:26;;;;;;;5.00;1.33;;;;;;;;;;5390811;26;20347;-64
2024/04/09 00:37:54;;;;;;;2.47;1.43;;;;;;;;;;5390828;26;20262;-64
2024/04/09 00:40:20;;;;;;;10.98;1.20;;;;;;;;;;5383726;26;20015;-65
2024/04/09 00:42:49;;;;;;;5.57;0.90;;;;;;;;;;5392346;26;20427;-65
2024/04/09 00:45:16;;;;;;;1.15;0.65;;;;;;;;;;5386043;26;20043;-65
2024/04/09 00:47:43;;;;;;;4.18;1.67;;;;;;;;;;5383223;26;20012;-64
2024/04/09 00:50:11;;;;;;;4.70;1.35;;;;;;;;;;5383978;26;20375;-64
2024/04/09 00:52:37;;;;;;;2.53;0.52;;;;;;;;;;5401663;26;19999;-65
2024/04/09 00:55:02;;;;;;;0.50;0.40;;;;;;;;;;5401530;26;19997;-64
2024/04/09 00:57:28;;;;;;;3.25;1.17;;;;;;;;;;5404255;26;20077;-65
2024/04/09 00:59:54;;;;;;;4.50;0.82;;;;;;;;;;5384173;26;20006;-65
2024/04/09 01:02:21;;;;;;;0.10;0.10;;;;;;;;;;5384730;26;20020;-64
2024/04/09 01:04:46;;;;;;;3.95;1.38;;;;;;;;;;5405440;26;20427;-64
2024/04/09 01:07:11;;;;;;;4.47;0.90;;;;;;;;;;5406290;26;20015;-65
2024/04/09 01:09:40;;;;;;;7.53;1.17;;;;;;;;;;5414259;26;20327;-64
2024/04/09 01:12:05;;;;;;;0.93;0.55;;;;;;;;;;5407866;26;20260;-64
2024/04/09 01:14:30;;;;;;;2.92;1.38;;;;;;;;;;5383756;26;20000;-64
2024/04/09 01:16:56;;;;;;;6.97;1.20;;;;;;;;;;5390800;26;20007;-61
2024/04/09 01:19:21;;;;;;;5.07;1.50;;;;;;;;;;5382949;26;20293;-61
2024/04/09 01:21:47;;;;;;;2.20;0.93;;;;;;;;;;5385088;26;20004;-61
2024/04/09 01:24:12;;;;;;;12.82;1.55;;;;;;;;;;5393308;26;20015;-61
2024/04/09 01:26:37;;;;;;;4.17;0.80;;;;;;;;;;5402063;26;19996;-61
2024/04/09 01:29:03;;;;;;;8.50;1.57;;;;;;;;;;5401104;26;20341;-61
2024/04/09 01:31:29;;;;;;;1.95;0.82;;;;;;;;;;5392781;26;20008;-61
2024/04/09 01:33:55;;;;;;;6.13;1.65;;;;;;;;;;5387203;26;20011;-61
2024/04/09 01:36:20;;;;;;;9.57;1.80;;;;;;;;;;5382810;26;20000;-61
2024/04/09 01:38:45;;;;;;;0.47;0.47;;;;;;;;;;5411252;26;20018;-60
2024/04/09 01:41:11;;;;;;;2.67;0.90;;;;;;;;;;5413384;26;20027;-61
2024/04/09 01:43:36;;;;;;;0.98;0.47;;;;;;;;;;5404699;26;20010;-61
2024/04/09 01:46:02;;;;;;;0.00;0.00;;;;;;;;;;5416599;26;19995;-61
2024/04/09 01:48:28;;;;;;;0.15;0.15;;;;;;;;;;5409496;26;20456;-60
2024/04/09 01:50:54;;;;;;;2.78;0.68;;;;;;;;;;5393612;26;20006;-61
2024/04/09 01:53:19;;;;;;;0.10;0.10;;;;;;;;;;5414566;26;19999;-60
2024/04/09 01:55:44;;;;;;;1.50;0.73;;;;;;;;;;5417232;26;20006;-60
2024/04/09 01:58:09;;;;;;;0.30;0.30;;;;;;;;;;5407172;26;20065;-61
2024/04/09 02:00:35;;;;;;;1.40;0.90;;;;;;;;;;5381505;26;19996;-60
2024/04/09 02:03:01;;;;;;;0.32;0.32;;;;;;;;;;5405217;26;20335;-61
2024/04/09 02:05:26;;;;;;;5.50;0.65;;;;;;;;;;5415173;26;19995;-60
2024/04/09 02:07:52;;;;;;;0.93;0.17;;;;;;;;;;5413601;26;20010;-60
2024/04/09 02:10:19;;;;;;;0.75;0.55;;;;;;;;;;5369056;26;20000;-60
2024/04/09 02:12:44;;;;;;;0.43;0.43;;;;;;;;;;5383243;26;20033;-60
2024/04/09 02:15:12;;;;;;;0.00;0.00;;;;;;;;;;5384842;26;19997;-61
2024/04/09 02:17:37;;;;;;;0.15;0.15;;;;;;;;;;5382095;26;20269;-60
2024/04/09 02:20:04;;;;;;;0.87;0.20;;;;;;;;;;5382136;26;20000;-61
2024/04/09 02:22:29;;;;;;;0.00;0.00;;;;;;;;;;5383666;26;20012;-60
2024/04/09 02:24:55;;;;;;;0.30;0.30;;;;;;;;;;5407507;26;20000;-61
2024/04/09 02:27:21;;;;;;;0.75;0.75;;;;;;;;;;5400747;26;20243;-64
2024/04/09 02:29:46;;;;;;;0.95;0.50;;;;;;;;;;5408672;26;20131;-65
2024/04/09 02:32:11;;;;;;;1.75;0.52;;;;;;;;;;5396620;26;20000;-65
2024/04/09 02:34:37;;;;;;;0.20;0.20;;;;;;;;;;5384416;26;19996;-65
2024/04/09 02:37:05;;;;;;;1.27;0.60;;;;;;;;;;5382866;26;20390;-65
2024/04/09 02:39:31;;;;;;;0.88;0.52;;;;;;;;;;5381687;26;20766;-64
2024/04/09 02:41:56;;;;;;;2.08;0.38;;;;;;;;;;5402075;26;20000;-65
2024/04/09 02:44:21;;;;;;;0.10;0.10;;;;;;;;;;5398286;26;20000;-64
2024/04/09 02:46:47;;;;;;;1.40;0.90;;;;;;;;;;5385240;26;20024;-64
2024/04/09 02:49:12;;;;;;;0.40;0.35;;;;;;;;;;5383683;26;20000;-65
2024/04/09 02:51:39;;;;;;;1.53;0.57;;;;;;;;;;5409707;26;20018;-64
2024/04/09 02:54:04;;;;;;;0.88;0.20;;;;;;;;;;5396941;26;20007;-65
2024/04/09 02:56:30;;;;;;;0.10;0.10;;;;;;;;;;5403196;26;20004;-65
2024/04/09 02:58:55;;;;;;;0.00;0.00;;;;;;;;;;5401135;26;20009;-64
2024/04/09 03:01:20;;;;;;;0.57;0.20;;;;;;;;;;5413581;26;20016;-64
2024/04/09 03:03:45;;;;;;;0.20;0.20;;;;;;;;;;5410266;26;20003;-64
2024/04/09 03:06:14;;;;;;;0.00;0.00;;;;;;;;;;5404959;26;20005;-65
2024/04/09 03:08:42;;;;;;;5.50;0.32;;;;;;;;;;5388936;26;20003;-64
2024/04/09 03:11:15;;;;;;;0.10;0.10;;;;;;;;;;5393818;26;20037;-64
2024/04/09 03:13:40;;;;;;;5.28;0.52;;;;;;;;;;5387380;26;20024;-64
2024/04/09 03:16:12;;;;;;;0.00;0.00;;;;;;;;;;5391526;26;20077;-64
2024/04/09 03:18:38;;;;;;;0.10;0.10;;;;;;;;;;5410327;26;19996;-64
2024/04/09 03:21:03;;;;;;;0.00;0.00;;;;;;;;;;5401605;26;20000;-64
2024/04/09 03:23:29;;;;;;;0.38;0.38;;;;;;;;;;5383032;26;20008;-64
2024/04/09 03:25:54;;;;;;;0.20;0.17;;;;;;;;;;5383272;26;20420;-64
2024/04/09 03:28:19;;;;;;;0.40;0.30;;;;;;;;;;5398072;26;20757;-64
2024/04/09 03:30:54;;;;;;;2.37;0.33;;;;;;;;;;5412192;26;20027;-65
2024/04/09 03:33:19;;;;;;;0.75;0.40;;;;;;;;;;5371215;26;20000;-65
2024/04/09 03:35:49;;;;;;;0.63;0.37;;;;;;;;;;5397265;26;20003;-64
2024/04/09 03:38:14;;;;;;;0.75;0.10;;;;;;;;;;5418462;26;20285;-60
2024/04/09 03:40:39;;;;;;;0.00;0.00;;;;;;;;;;5411236;26;20000;-60
2024/04/09 03:43:05;;;;;;;0.10;0.10;;;;;;;;;;5384468;26;20007;-60
2024/04/09 03:45:30;;;;;;;0.00;0.00;;;;;;;;;;5392665;26;20030;-60
2024/04/09 03:47:56;;;;;;;0.00;0.00;;;;;;;;;;5405109;26;20431;-61
2024/04/09 03:50:21;;;;;;;1.10;0.30;;;;;;;;;;5413276;26;20000;-60
2024/04/09 03:52:46;;;;;;;0.00;0.00;;;;;;;;;;5406527;26;20003;-60
2024/04/09 03:55:11;;;;;;;2.33;0.57;;;;;;;;;;5395513;26;20282;-60
2024/04/09 03:57:38;;;;;;;2.27;0.20;;;;;;;;;;5384176;26;19999;-60
2024/04/09 04:00:04;;;;;;;0.05;0.05;;;;;;;;;;5384379;26;20265;-69
2024/04/09 04:02:29;;;;;;;0.43;0.28;;;;;;;;;;5384242;26;20024;-59
2024/04/09 04:04:55;;;;;;;0.00;0.00;;;;;;;;;;5383771;26;20011;-59
2024/04/09 04:07:20;;;;;;;0.00;0.00;;;;;;;;;;5383897;26;20336;-58
2024/04/09 04:09:45;;;;;;;0.10;0.10;;;;;;;;;;5383779;26;20138;-58
2024/04/09 04:12:10;;;;;;;0.00;0.00;;;;;;;;;;5383937;26;19996;-58
2024/04/09 04:14:35;;;;;;;0.00;0.00;;;;;;;;;;5383853;26;20000;-59
2024/04/09 04:17:03;;;;;;;0.22;0.22;;;;;;;;;;5383947;26;20259;-59
2024/04/09 04:19:28;;;;;;;0.30;0.30;;;;;;;;;;5383751;26;19992;-59
2024/04/09 04:21:53;;;;;;;0.10;0.10;;;;;;;;;;5383850;26;20423;-59
2024/04/09 04:24:18;;;;;;;0.10;0.10;;;;;;;;;;5383669;26;20000;-59
2024/04/09 04:26:44;;;;;;;0.00;0.00;;;;;;;;;;5383745;26;20266;-59
2024/04/09 04:29:10;;;;;;;0.07;0.07;;;;;;;;;;5383634;26;20008;-59
2024/04/09 04:31:36;;;;;;;0.10;0.10;;;;;;;;;;5383583;26;20215;-59
2024/04/09 04:34:02;;;;;;;2.28;0.32;;;;;;;;;;5383596;26;20347;-59
2024/04/09 04:36:27;;;;;;;0.00;0.00;;;;;;;;;;5381845;26;20002;-58
2024/04/09 04:38:52;;;;;;;0.10;0.10;;;;;;;;;;5383470;26;20067;-58
2024/04/09 04:41:17;;;;;;;0.20;0.13;;;;;;;;;;5383506;26;20065;-59
2024/04/09 04:43:43;;;;;;;0.30;0.30;;;;;;;;;;5383425;26;20337;-58
2024/04/09 04:46:08;;;;;;;0.10;0.10;;;;;;;;;;5383657;26;20230;-59
2024/04/09 04:48:33;;;;;;;0.20;0.10;;;;;;;;;;5383383;26;20030;-61
2024/04/09 04:50:59;;;;;;;0.20;0.20;;;;;;;;;;5383367;26;19992;-61
2024/04/09 04:53:24;;;;;;;0.00;0.00;;;;;;;;;;5383495;26;20003;-61
2024/04/09 04:55:49;;;;;;;0.10;0.10;;;;;;;;;;5383321;26;19996;-61
2024/04/09 04:58:15;;;;;;;0.10;0.10;;;;;;;;;;5383297;26;20065;-61
2024/04/09 05:00:40;;;;;;;0.88;0.55;;;;;;;;;;5383380;26;20744;-61
2024/04/09 05:03:06;;;;;;;0.00;0.00;;;;;;;;;;5383190;26;20004;-61
2024/04/09 05:05:31;;;;;;;0.00;0.00;;;;;;;;;;5383130;26;20069;-61
2024/04/09 05:07:57;;;;;;;0.10;0.10;;;;;;;;;;5383017;26;20372;-61
2024/04/09 05:10:22;;;;;;;0.10;0.10;;;;;;;;;;5383101;26;20226;-61
2024/04/09 05:12:49;;;;;;;0.10;0.10;;;;;;;;;;5383092;26;20003;-61
2024/04/09 05:15:15;;;;;;;0.03;0.03;;;;;;;;;;5383031;26;20004;-61
2024/04/09 05:17:40;;;;;;;0.30;0.30;;;;;;;;;;5383164;26;19999;-61
2024/04/09 05:20:12;;;;;;;0.10;0.10;;;;;;;;;;5382982;26;20133;-61
2024/04/09 05:22:38;;;;;;;0.03;0.03;;;;;;;;;;5382935;26;20007;-61
2024/04/09 05:25:03;;;;;;;0.10;0.10;;;;;;;;;;5382888;26;20003;-61
2024/04/09 05:27:29;;;;;;;0.00;0.00;;;;;;;;;;5382824;26;20000;-61
2024/04/09 05:29:54;;;;;;;0.00;0.00;;;;;;;;;;5382738;26;20015;-61
2024/04/09 05:32:19;;;;;;;0.00;0.00;;;;;;;;;;5382818;26;20356;-61
2024/04/09 05:34:44;;;;;;;0.00;0.00;;;;;;;;;;5381419;26;19996;-61
2024/04/09 05:37:11;;;;;;;0.00;0.00;;;;;;;;;;5381111;26;19992;-62
2024/04/09 05:39:36;;;;;;;0.00;0.00;;;;;;;;;;5382678;26;20232;-63
2024/04/09 05:42:01;;;;;;;0.00;0.00;;;;;;;;;;5382727;26;20065;-61
2024/04/09 05:44:26;;;;;;;0.00;0.00;;;;;;;;;;5382653;26;20069;-63
2024/04/09 05:46:51;;;;;;;0.00;0.00;;;;;;;;;;5382639;26;20321;-63
2024/04/09 05:49:21;;;;;;;0.13;0.13;;;;;;;;;;5382452;26;20230;-63
2024/04/09 05:51:46;;;;;;;0.10;0.10;;;;;;;;;;5382552;26;20007;-63
2024/04/09 05:54:12;;;;;;;0.00;0.00;;;;;;;;;;5382529;26;20429;-63
2024/04/09 05:56:37;;;;;;;0.00;0.00;;;;;;;;;;5382552;26;20020;-58
2024/04/09 05:59:02;;;;;;;0.00;0.00;;;;;;;;;;5382543;26;20007;-61
2024/04/09 06:01:28;;;;;;;0.10;0.10;;;;;;;;;;5382361;26;20008;-60
2024/04/09 06:03:53;;;;;;;0.10;0.10;;;;;;;;;;5382317;26;20078;-60
2024/04/09 06:06:18;;;;;;;0.10;0.10;;;;;;;;;;5382232;26;19998;-60
2024/04/09 06:08:43;;;;;;;0.00;0.00;;;;;;;;;;5382298;26;19996;-60
2024/04/09 06:11:08;;;;;;;0.00;0.00;;;;;;;;;;5382179;26;19997;-60
2024/04/09 06:13:33;;;;;;;0.00;0.00;;;;;;;;;;5382209;26;20074;-60
2024/04/09 06:15:59;;;;;;;0.00;0.00;;;;;;;;;;5382184;26;19996;-60
2024/04/09 06:18:24;;;;;;;0.00;0.00;;;;;;;;;;5382125;26;20002;-60
2024/04/09 06:20:49;;;;;;;0.00;0.00;;;;;;;;;;5382097;26;19996;-60
2024/04/09 06:23:14;;;;;;;0.00;0.00;;;;;;;;;;5382046;26;20339;-60
2024/04/09 06:25:39;;;;;;;0.00;0.00;;;;;;;;;;5381953;26;19997;-60
2024/04/09 06:28:05;;;;;;;0.00;0.00;;;;;;;;;;5381898;26;20007;-60
2024/04/09 06:30:30;;;;;;;0.00;0.00;;;;;;;;;;5381928;26;20000;-60
2024/04/09 06:32:55;;;;;;;0.00;0.00;;;;;;;;;;5381873;26;20007;-60
2024/04/09 06:35:21;;;;;;;0.00;0.00;;;;;;;;;;5381891;26;20008;-60
2024/04/09 06:37:47;;;;;;;0.00;0.00;;;;;;;;;;5381823;26;20070;-60
2024/04/09 06:40:12;;;;;;;0.10;0.10;;;;;;;;;;5381708;26;20008;-60
2024/04/09 06:42:37;;;;;;;0.00;0.00;;;;;;;;;;5381715;26;20008;-60
2024/04/09 06:45:03;;;;;;;0.00;0.00;;;;;;;;;;5381683;26;19997;-60
2024/04/09 06:47:28;;;;;;;0.00;0.00;;;;;;;;;;5385011;26;20245;-60
2024/04/09 06:49:55;;;;;;;0.10;0.10;;;;;;;;;;5384926;26;20020;-60
2024/04/09 06:52:20;;;;;;;0.00;0.00;;;;;;;;;;5385111;26;20073;-60
2024/04/09 06:54:45;;;;;;;0.00;0.00;;;;;;;;;;5385004;26;20008;-60
2024/04/09 06:57:10;;;;;;;0.07;0.07;;;;;;;;;;5384926;26;20223;-60
2024/04/09 06:59:36;;;;;;;0.00;0.00;;;;;;;;;;5384951;26;20073;-60
2024/04/09 07:02:01;;;;;;;0.00;0.00;;;;;;;;;;5384909;26;20064;-60
2024/04/09 07:04:27;;;;;;;0.03;0.03;;;;;;;;;;5384785;26;20325;-60
2024/04/09 07:06:52;;;;;;;0.00;0.00;;;;;;;;;;5384860;26;19997;-62
2024/04/09 07:09:18;;;;;;;0.00;0.00;;;;;;;;;;5384961;26;20448;-62
2024/04/09 07:11:44;;;;;;;0.00;0.00;;;;;;;;;;5384760;26;19996;-62
2024/04/09 07:14:11;;;;;;;0.00;0.00;;;;;;;;;;5384764;26;19998;-62
2024/04/09 07:16:36;;;;;;;0.00;0.00;;;;;;;;;;5384672;26;20527;-63
2024/04/09 07:19:01;;;;;;;0.10;0.10;;;;;;;;;;5384695;26;19996;-62
2024/04/09 07:21:27;;;;;;;2.03;0.63;;;;;;;;;;5384553;26;19996;-62
2024/04/09 07:23:52;;;;;;;0.00;0.00;;;;;;;;;;5384565;26;20415;-62
2024/04/09 07:26:19;;;;;;;0.00;0.00;;;;;;;;;;5384564;26;19996;-62
2024/04/09 07:28:45;;;;;;;0.00;0.00;;;;;;;;;;5384444;26;20000;-62
2024/04/09 07:31:11;;;;;;;0.10;0.10;;;;;;;;;;5384467;26;20528;-62
2024/04/09 07:33:36;;;;;;;0.00;0.00;;;;;;;;;;5384440;26;20011;-62
2024/04/09 07:36:03;;;;;;;0.00;0.00;;;;;;;;;;5384485;26;20073;-62
2024/04/09 07:38:28;;;;;;;0.17;0.17;;;;;;;;;;5384358;26;20011;-62
2024/04/09 07:40:53;;;;;;;0.23;0.23;;;;;;;;;;5384375;26;20000;-63
2024/04/09 07:43:19;;;;;;;0.13;0.13;;;;;;;;;;5384297;26;20283;-62
2024/04/09 07:45:44;;;;;;;0.10;0.10;;;;;;;;;;5384285;26;20011;-62
2024/04/09 07:48:09;;;;;;;0.60;0.10;;;;;;;;;;5384168;26;20000;-62
2024/04/09 07:50:35;;;;;;;0.10;0.10;;;;;;;;;;5384227;26;20069;-62
2024/04/09 07:53:00;;;;;;;0.00;0.00;;;;;;;;;;5384246;26;20316;-62
2024/04/09 07:55:26;;;;;;;0.10;0.10;;;;;;;;;;5384118;26;20007;-62
2024/04/09 07:57:51;;;;;;;0.00;0.00;;;;;;;;;;5383223;26;20562;-62
2024/04/09 08:00:17;;;;;;;0.40;0.30;;;;;;;;;;5384418;26;19997;-62
2024/04/09 08:02:46;;;;;;;0.00;0.00;;;;;;;;;;5383981;26;19996;-62
2024/04/09 08:05:12;;;;;;;0.17;0.13;;;;;;;;;;5383979;26;20074;-62
2024/04/09 08:07:39;;;;;;;0.00;0.00;;;;;;;;;;5383903;26;20050;-62
2024/04/09 08:10:09;;;;;;;0.08;0.08;;;;;;;;;;5384223;26;20473;-62
2024/04/09 08:12:35;;;;;;;0.00;0.00;;;;;;;;;;5383959;26;20000;-62
2024/04/09 08:15:00;;;;;;;0.00;0.00;;;;;;;;;;5383898;26;19996;-62
2024/04/09 08:17:25;;;;;;;0.00;0.00;;;;;;;;;;5383953;26;19993;-62
2024/04/09 08:19:50;;;;;;;0.07;0.07;;;;;;;;;;5383789;26;19996;-62
2024/04/09 08:22:16;;;;;;;0.00;0.00;;;;;;;;;;5383818;26;20002;-62
2024/04/09 08:24:44;;;;;;;0.00;0.00;;;;;;;;;;5383781;26;20007;-62
2024/04/09 08:27:09;;;;;;;0.03;0.03;;;;;;;;;;5383766;26;20077;-62
2024/04/09 08:29:34;;;;;;;0.20;0.13;;;;;;;;;;5383595;26;20442;-62
2024/04/09 08:31:59;;;;;;;0.00;0.00;;;;;;;;;;5383677;26;20808;-62
2024/04/09 08:34:24;;;;;;;0.00;0.00;;;;;;;;;;5383632;26;20000;-62
2024/04/09 08:36:50;;;;;;;0.03;0.03;;;;;;;;;;5383607;26;20004;-61
2024/04/09 08:39:15;;;;;;;0.10;0.10;;;;;;;;;;5383519;26;20227;-62
2024/04/09 08:41:41;;;;;;;0.10;0.10;;;;;;;;;;5383556;26;20008;-62
2024/04/09 08:44:07;;;;;;;0.00;0.00;;;;;;;;;;5383452;26;20004;-62
2024/04/09 08:46:33;;;;;;;0.05;0.05;;;;;;;;;;5383482;26;20002;-62
2024/04/09 08:48:59;;;;;;;0.00;0.00;;;;;;;;;;5383359;26;20004;-62
2024/04/09 08:51:24;;;;;;;0.05;0.05;;;;;;;;;;5383380;26;20002;-62
2024/04/09 08:53:49;;;;;;;0.00;0.00;;;;;;;;;;5383301;26;20024;-62
2024/04/09 08:56:15;;;;;;;0.00;0.00;;;;;;;;;;5383277;26;20365;-62
2024/04/09 08:58:40;;;;;;;0.05;0.05;;;;;;;;;;5383241;26;20006;-62
2024/04/09 09:01:05;;;;;;;0.00;0.00;;;;;;;;;;5383263;26;19997;-62
2024/04/09 09:03:31;;;;;;;0.10;0.10;;;;;;;;;;5383195;26;20008;-62
2024/04/09 09:05:56;;;;;;;0.00;0.00;;;;;;;;;;5383101;26;20000;-62
2024/04/09 09:08:22;;;;;;;0.00;0.00;;;;;;;;;;5382878;26;20267;-62
2024/04/09 09:10:53;;;;;;;0.50;0.40;;;;;;;;;;5383081;26;20390;-62
2024/04/09 09:13:18;;;;;;;0.10;0.10;;;;;;;;;;5383123;26;20269;-62
2024/04/09 09:15:43;;;;;;;0.00;0.00;;;;;;;;;;5383032;26;20000;-62
2024/04/09 09:18:09;;;;;;;0.00;0.00;;;;;;;;;;5383026;26;20138;-62
2024/04/09 09:20:34;;;;;;;0.00;0.00;;;;;;;;;;5382943;26;20072;-62
2024/04/09 09:22:59;;;;;;;0.00;0.00;;;;;;;;;;5382997;26;20230;-62
2024/04/09 09:25:26;;;;;;;0.00;0.00;;;;;;;;;;5382943;26;20008;-62
2024/04/09 09:28:10;;;;;;;0.17;0.17;;;;;;;;;;5382835;26;20033;-62
2024/04/09 09:30:42;;;;;;;0.10;0.10;;;;;;;;;;5382787;26;20012;-63
2024/04/09 09:33:11;;;;;;;0.00;0.00;;;;;;;;;;5382810;26;20002;-62
2024/04/09 09:35:37;;;;;;;0.08;0.08;;;;;;;;;;5382744;26;20004;-62
2024/04/09 09:38:03;;;;;;;2.72;0.55;;;;;;;;;;5382676;26;19996;-62
2024/04/09 09:40:30;;;;;;;1.35;0.52;;;;;;;;;;5382710;26;20029;-62
2024/04/09 09:42:55;;;;;;;3.25;0.32;;;;;;;;;;5382610;26;20476;-62
2024/04/09 09:45:22;;;;;;;0.10;0.10;;;;;;;;;;5382626;26;19996;-62
2024/04/09 09:47:48;;;;;;;0.10;0.10;;;;;;;;;;5382573;26;19992;-62
2024/04/09 09:50:13;;;;;;;0.38;0.28;;;;;;;;;;5382524;26;20341;-62
2024/04/09 09:52:41;;;;;;;0.10;0.10;;;;;;;;;;5382505;26;19996;-62
2024/04/09 09:55:06;;;;;;;0.10;0.10;;;;;;;;;;5382523;26;19996;-62
2024/04/09 09:57:32;;;;;;;0.15;0.15;;;;;;;;;;5382487;26;20011;-62
2024/04/09 10:00:00;;;;;;;0.40;0.40;;;;;;;;;;5382454;26;20320;-62
2024/04/09 10:02:28;;;;;;;0.00;0.00;;;;;;;;;;5382433;26;20010;-62
2024/04/09 10:04:55;;;;;;;0.17;0.17;;;;;;;;;;5382296;26;19992;-62
2024/04/09 10:07:21;;;;;;;0.10;0.10;;;;;;;;;;5382170;26;19996;-61
2024/04/09 10:09:50;;;;;;;0.10;0.10;;;;;;;;;;5382488;26;20335;-62
2024/04/09 10:12:19;;;;;;;0.05;0.05;;;;;;;;;;5382509;26;20008;-63
2024/04/09 10:14:44;;;;;;;0.20;0.20;;;;;;;;;;5382464;26;20008;-62
2024/04/09 10:17:12;;;;;;;0.10;0.10;;;;;;;;;;5382509;26;20007;-62
2024/04/09 10:19:37;;;;;;;0.00;0.00;;;;;;;;;;5382407;26;20702;-62
2024/04/09 10:22:03;;;;;;;0.00;0.00;;;;;;;;;;5381959;26;20000;-62
2024/04/09 10:24:29;;;;;;;1.33;0.17;;;;;;;;;;5382329;26;20070;-62
2024/04/09 10:26:54;;;;;;;0.00;0.00;;;;;;;;;;5382247;26;20012;-62
2024/04/09 10:29:21;;;;;;;0.20;0.20;;;;;;;;;;5382203;26;20402;-62
2024/04/09 10:31:49;;;;;;;0.10;0.10;;;;;;;;;;5382228;26;20000;-62
2024/04/09 10:34:24;;;;;;;0.10;0.10;;;;;;;;;;5382174;26;19992;-62
2024/04/09 10:36:50;;;;;;;0.17;0.17;;;;;;;;;;5382268;26;20000;-60
2024/04/09 10:39:16;;;;;;;0.20;0.20;;;;;;;;;;5382071;26;20428;-60
2024/04/09 10:41:41;;;;;;;0.10;0.10;;;;;;;;;;5382063;26;20000;-60
2024/04/09 10:44:09;;;;;;;0.00;0.00;;;;;;;;;;5382028;26;19996;-60
2024/04/09 10:46:34;;;;;;;0.88;0.55;;;;;;;;;;5381863;26;20324;-60
2024/04/09 10:48:59;;;;;;;0.20;0.20;;;;;;;;;;5381859;26;19996;-60
2024/04/09 10:51:24;;;;;;;0.00;0.00;;;;;;;;;;5381836;26;20000;-60
2024/04/09 10:53:50;;;;;;;0.35;0.35;;;;;;;;;;5381836;26;20226;-60
2024/04/09 10:56:15;;;;;;;0.15;0.15;;;;;;;;;;5381784;26;20437;-60
2024/04/09 10:58:40;;;;;;;0.00;0.00;;;;;;;;;;5381815;26;20008;-60
2024/04/09 11:01:06;;;;;;;0.00;0.00;;;;;;;;;;5381730;26;20348;-60
2024/04/09 11:03:32;;;;;;;0.00;0.00;;;;;;;;;;5381661;26;20004;-60
2024/04/09 11:05:58;;;;;;;18.05;0.80;;;;;;;;;;5381459;26;19996;-60
2024/04/09 11:08:24;;;;;;;1.45;0.95;;;;;;;;;;5381250;26;20344;-60
2024/04/09 11:10:50;;;;;;;0.47;0.47;;;;;;;;;;5381534;26;19996;-60
2024/04/09 11:13:15;;;;;;;0.52;0.52;;;;;;;;;;5381438;26;20037;-60
2024/04/09 11:15:42;;;;;;;0.00;0.00;;;;;;;;;;5381481;26;20306;-59
2024/04/09 11:18:11;;;;;;;0.10;0.10;;;;;;;;;;5381016;26;20001;-60
2024/04/09 11:20:36;;;;;;;0.25;0.25;;;;;;;;;;5381007;26;20320;-60
2024/04/09 11:23:02;;;;;;;0.57;0.47;;;;;;;;;;5380979;26;19992;-60
2024/04/09 11:25:27;;;;;;;0.13;0.13;;;;;;;;;;5381152;26;20002;-60
2024/04/09 11:27:53;;;;;;;0.00;0.00;;;;;;;;;;5380831;26;20218;-60
2024/04/09 11:30:28;;;;;;;7.78;1.05;;;;;;;;;;5380825;26;20000;-60
2024/04/09 11:32:57;;;;;;;0.10;0.10;;;;;;;;;;5381915;26;20007;-60
2024/04/09 11:35:22;;;;;;;0.20;0.20;;;;;;;;;;5384410;26;20414;-60
2024/04/09 11:37:57;;;;;;;0.00;0.00;;;;;;;;;;5384456;26;20036;-60
2024/04/09 11:40:22;;;;;;;0.10;0.10;;;;;;;;;;5384411;26;20008;-60
2024/04/09 11:42:48;;;;;;;0.10;0.10;;;;;;;;;;5384391;26;20015;-60
2024/04/09 11:45:20;;;;;;;0.10;0.10;;;;;;;;;;5384300;26;20003;-60
2024/04/09 11:47:46;;;;;;;0.08;0.08;;;;;;;;;;5384414;26;20007;-62
2024/04/09 11:50:11;;;;;;;0.32;0.32;;;;;;;;;;5384219;26;20362;-62
2024/04/09 11:52:36;;;;;;;0.00;0.00;;;;;;;;;;5384348;26;20338;-62
2024/04/09 11:55:02;;;;;;;0.20;0.20;;;;;;;;;;5384238;26;19993;-62
2024/04/09 11:57:27;;;;;;;2.83;0.75;;;;;;;;;;5384124;26;20218;-62
2024/04/09 11:59:53;;;;;;;0.07;0.07;;;;;;;;;;5384120;26;20142;-62
2024/04/09 12:02:18;;;;;;;0.10;0.10;;;;;;;;;;5384106;26;20432;-62
2024/04/09 12:04:43;;;;;;;0.00;0.00;;;;;;;;;;5384010;26;20468;-62
2024/04/09 12:07:09;;;;;;;0.00;0.00;;;;;;;;;;5384015;26;20255;-62
2024/04/09 12:09:36;;;;;;;1.13;1.02;;;;;;;;;;5384042;26;20382;-62
2024/04/09 12:12:01;;;;;;;0.38;0.38;;;;;;;;;;5384276;26;20011;-62
2024/04/09 12:14:27;;;;;;;0.00;0.00;;;;;;;;;;5384242;26;20000;-62
2024/04/09 12:16:52;;;;;;;0.00;0.00;;;;;;;;;;5384226;26;20004;-62
2024/04/09 12:19:17;;;;;;;0.20;0.20;;;;;;;;;;5383862;26;20004;-62
2024/04/09 12:21:42;;;;;;;5.53;0.77;;;;;;;;;;5383735;26;20011;-62
2024/04/09 12:24:08;;;;;;;0.10;0.10;;;;;;;;;;5383801;26;20218;-62
2024/04/09 12:26:33;;;;;;;2.53;0.82;;;;;;;;;;5383729;26;20247;-62
2024/04/09 12:28:59;;;;;;;1.13;0.50;;;;;;;;;;5383626;26;20066;-62
2024/04/09 12:31:25;;;;;;;0.00;0.00;;;;;;;;;;5383663;26;19996;-62
2024/04/09 12:33:50;;;;;;;0.15;0.15;;;;;;;;;;5383638;26;20456;-62
2024/04/09 12:36:15;;;;;;;0.20;0.20;;;;;;;;;;5383646;26;19996;-62
2024/04/09 12:38:41;;;;;;;0.13;0.13;;;;;;;;;;5383608;26;20003;-62
2024/04/09 12:41:06;;;;;;;0.10;0.10;;;;;;;;;;5383501;26;20028;-62
2024/04/09 12:43:31;;;;;;;0.37;0.10;;;;;;;;;;5383089;26;20383;-62
2024/04/09 12:45:57;;;;;;;0.00;0.00;;;;;;;;;;5383490;26;20548;-62
2024/04/09 12:48:22;;;;;;;0.10;0.10;;;;;;;;;;5383392;26;20004;-62
2024/04/09 12:50:47;;;;;;;0.00;0.00;;;;;;;;;;5383669;26;20340;-62
2024/04/09 12:53:12;;;;;;;0.00;0.00;;;;;;;;;;5383407;26;19996;-62
2024/04/09 12:55:38;;;;;;;0.40;0.40;;;;;;;;;;5383345;26;20000;-62
2024/04/09 12:58:03;;;;;;;0.20;0.20;;;;;;;;;;5383426;26;20338;-60
2024/04/09 13:00:29;;;;;;;2.00;0.65;;;;;;;;;;5383263;26;20000;-60
2024/04/09 13:02:54;;;;;;;0.20;0.20;;;;;;;;;;5383227;26;20432;-60
2024/04/09 13:05:20;;;;;;;0.10;0.10;;;;;;;;;;5383193;26;19996;-60
2024/04/09 13:07:46;;;;;;;0.00;0.00;;;;;;;;;;5382966;26;20012;-60
2024/04/09 13:10:11;;;;;;;10.77;0.50;;;;;;;;;;5383096;26;20000;-60
2024/04/09 13:12:36;;;;;;;1.07;0.97;;;;;;;;;;5383071;26;20345;-60
2024/04/09 13:15:01;;;;;;;0.00;0.00;;;;;;;;;;5383083;26;20047;-60
2024/04/09 13:17:26;;;;;;;18.73;0.50;;;;;;;;;;5383060;26;20000;-60
2024/04/09 13:19:52;;;;;;;2.20;0.60;;;;;;;;;;5382978;26;20325;-60
2024/04/09 13:22:17;;;;;;;0.13;0.13;;;;;;;;;;5382998;26;20073;-60
2024/04/09 13:24:42;;;;;;;0.00;0.00;;;;;;;;;;5383024;26;20473;-60
2024/04/09 13:27:07;;;;;;;0.10;0.10;;;;;;;;;;5382963;26;20011;-60
2024/04/09 13:29:33;;;;;;;0.45;0.17;;;;;;;;;;5382757;26;20008;-60
2024/04/09 13:32:00;;;;;;;0.10;0.10;;;;;;;;;;5382742;26;20386;-60
2024/04/09 13:34:26;;;;;;;1.35;0.30;;;;;;;;;;5382777;26;20010;-60
2024/04/09 13:36:51;;;;;;;0.03;0.03;;;;;;;;;;5382731;26;20000;-60
2024/04/09 13:39:17;;;;;;;0.00;0.00;;;;;;;;;;5382798;26;20011;-60
2024/04/09 13:41:42;;;;;;;0.00;0.00;;;;;;;;;;5382758;26;20413;-60
2024/04/09 13:44:07;;;;;;;0.25;0.20;;;;;;;;;;5382681;26;19997;-60
2024/04/09 13:46:32;;;;;;;0.10;0.10;;;;;;;;;;5382681;26;20000;-60
2024/04/09 13:48:58;;;;;;;0.10;0.10;;;;;;;;;;5382530;26;20227;-60
2024/04/09 13:51:23;;;;;;;0.00;0.00;;;;;;;;;;5382744;26;20343;-60
2024/04/09 13:53:48;;;;;;;0.20;0.20;;;;;;;;;;5382840;26;20066;-60
2024/04/09 13:56:13;;;;;;;0.10;0.10;;;;;;;;;;5381332;26;20006;-60
2024/04/09 13:58:39;;;;;;;0.10;0.10;;;;;;;;;;5382439;26;20214;-60
2024/04/09 14:01:04;;;;;;;1.03;0.50;;;;;;;;;;5382442;26;20447;-60
2024/04/09 14:03:29;;;;;;;0.30;0.10;;;;;;;;;;5382441;26;20011;-60
2024/04/09 14:05:54;;;;;;;0.17;0.17;;;;;;;;;;5382240;26;20070;-60
2024/04/09 14:08:19;;;;;;;0.23;0.17;;;;;;;;;;5382123;26;20340;-62
2024/04/09 14:10:45;;;;;;;0.07;0.07;;;;;;;;;;5382288;26;19996;-62
2024/04/09 14:13:10;;;;;;;0.10;0.10;;;;;;;;;;5382237;26;20764;-62
2024/04/09 14:15:35;;;;;;;0.67;0.50;;;;;;;;;;5382166;26;20007;-62
2024/04/09 14:18:01;;;;;;;0.00;0.00;;;;;;;;;;5382152;26;20222;-62
2024/04/09 14:20:26;;;;;;;0.10;0.10;;;;;;;;;;5382109;26;20219;-63
2024/04/09 14:22:51;;;;;;;0.00;0.00;;;;;;;;;;5382084;26;20218;-62
2024/04/09 14:25:19;;;;;;;0.93;0.73;;;;;;;;;;5381996;26;20448;-62
2024/04/09 14:27:44;;;;;;;0.00;0.00;;;;;;;;;;5382000;26;20435;-62
2024/04/09 14:30:10;;;;;;;1.95;1.85;;;;;;;;;;5381963;26;19996;-62
2024/04/09 14:32:35;;;;;;;0.20;0.20;;;;;;;;;;5381907;26;19996;-62
2024/04/09 14:35:00;;;;;;;1.27;0.93;;;;;;;;;;5381917;26;20004;-62